Time;durP1;ratioP1;P1;durP2;ratioP2;P2;SDS_P1;SDS_P2;PMS_P1;PMS_P2;Temp;Humidity;BMP_temperature;BMP_pressure;BME280_temperature;BME280_humidity;BME280_pressure;Samples;Min_cycle;Max_cycle;Signal;HPM_P1;HPM_P2
2023/09/19 00:02:25;;;;;;;2.13;0.88;;;;;;;;;;10528878;28;20419;-78
2023/09/19 00:07:28;;;;;;;1.85;0.85;;;;;;;;;;10527118;28;20426;-77
2023/09/19 00:12:32;;;;;;;1.90;0.95;;;;;;;;;;10525870;28;20437;-77
2023/09/19 00:17:37;;;;;;;2.40;1.02;;;;;;;;;;10517838;28;21292;-77
2023/09/19 00:22:40;;;;;;;2.70;1.10;;;;;;;;;;10527058;28;20453;-77
2023/09/19 00:27:45;;;;;;;2.30;0.93;;;;;;;;;;10523419;28;20936;-77
2023/09/19 00:32:48;;;;;;;3.53;1.10;;;;;;;;;;10526519;28;20499;-78
2023/09/19 00:37:51;;;;;;;1.95;1.00;;;;;;;;;;10521370;28;20937;-76
2023/09/19 00:42:59;;;;;;;2.67;1.08;;;;;;;;;;10520514;28;20826;-78
2023/09/19 00:48:03;;;;;;;2.15;0.70;;;;;;;;;;10526582;28;20437;-77
2023/09/19 00:53:07;;;;;;;1.75;0.93;;;;;;;;;;10522926;28;20467;-77
2023/09/19 00:58:12;;;;;;;2.78;1.27;;;;;;;;;;10531245;28;20532;-77
2023/09/19 01:03:14;;;;;;;2.47;1.17;;;;;;;;;;10524682;28;20424;-77
2023/09/19 01:08:18;;;;;;;2.55;1.20;;;;;;;;;;10531903;28;20457;-77
2023/09/19 01:13:28;;;;;;;2.92;1.17;;;;;;;;;;10533561;28;20492;-77
2023/09/19 01:18:37;;;;;;;2.72;1.23;;;;;;;;;;10523196;28;20439;-78
2023/09/19 01:23:43;;;;;;;2.37;1.13;;;;;;;;;;10520700;28;20492;-78
2023/09/19 01:28:57;;;;;;;1.58;1.00;;;;;;;;;;10523018;28;20466;-77
2023/09/19 01:34:04;;;;;;;1.70;0.90;;;;;;;;;;10530930;28;21081;-77
2023/09/19 01:39:10;;;;;;;2.70;1.10;;;;;;;;;;10524122;28;20529;-77
2023/09/19 01:44:17;;;;;;;1.83;1.10;;;;;;;;;;10531506;28;20898;-78
2023/09/19 01:49:28;;;;;;;3.70;1.20;;;;;;;;;;10525671;28;20539;-78
2023/09/19 01:54:33;;;;;;;1.92;1.10;;;;;;;;;;10537685;28;20423;-78
2023/09/19 01:59:40;;;;;;;2.43;1.00;;;;;;;;;;10524898;28;20433;-77
2023/09/19 02:04:44;;;;;;;2.78;1.00;;;;;;;;;;10524245;28;20548;-78
2023/09/19 02:09:47;;;;;;;2.88;0.90;;;;;;;;;;10518795;28;20851;-78
2023/09/19 02:14:50;;;;;;;3.47;1.10;;;;;;;;;;10532039;28;20413;-77
2023/09/19 02:19:54;;;;;;;2.40;1.03;;;;;;;;;;10526932;28;20500;-77
2023/09/19 02:25:00;;;;;;;2.40;1.05;;;;;;;;;;10521790;28;20407;-77
2023/09/19 02:30:04;;;;;;;2.10;1.00;;;;;;;;;;10522502;28;20449;-77
2023/09/19 02:35:10;;;;;;;2.42;1.10;;;;;;;;;;10531941;28;20635;-77
2023/09/19 02:40:19;;;;;;;2.10;1.17;;;;;;;;;;10519623;28;20531;-77
2023/09/19 02:45:22;;;;;;;2.05;1.13;;;;;;;;;;10521239;28;20519;-77
2023/09/19 02:50:26;;;;;;;1.92;1.00;;;;;;;;;;10518787;28;20442;-77
2023/09/19 02:55:29;;;;;;;2.13;1.20;;;;;;;;;;10537886;28;20495;-77
2023/09/19 03:00:31;;;;;;;2.10;1.08;;;;;;;;;;10522450;28;20433;-79
2023/09/19 03:05:36;;;;;;;2.27;1.17;;;;;;;;;;10527234;28;20513;-78
2023/09/19 03:10:40;;;;;;;4.63;1.30;;;;;;;;;;10532591;28;20435;-78
2023/09/19 03:15:46;;;;;;;2.47;1.10;;;;;;;;;;10528395;28;20426;-78
2023/09/19 03:20:55;;;;;;;1.30;1.00;;;;;;;;;;10529605;28;20818;-78
2023/09/19 03:25:58;;;;;;;2.50;1.23;;;;;;;;;;10529362;28;20421;-78
2023/09/19 03:31:01;;;;;;;2.13;0.90;;;;;;;;;;10530185;28;20429;-79
2023/09/19 03:36:06;;;;;;;3.05;1.00;;;;;;;;;;10526297;28;20514;-78
2023/09/19 03:41:09;;;;;;;2.05;1.10;;;;;;;;;;10522005;28;21199;-79
2023/09/19 03:46:12;;;;;;;3.30;1.38;;;;;;;;;;10530937;28;20503;-79
2023/09/19 03:51:16;;;;;;;2.97;1.25;;;;;;;;;;10536658;28;20782;-78
2023/09/19 03:56:19;;;;;;;3.10;1.30;;;;;;;;;;10531203;28;20458;-78
2023/09/19 04:01:22;;;;;;;3.10;1.20;;;;;;;;;;10517268;28;20929;-77
2023/09/19 04:06:27;;;;;;;2.65;1.23;;;;;;;;;;10528895;28;20427;-77
2023/09/19 04:11:29;;;;;;;3.45;1.20;;;;;;;;;;10525130;28;20420;-77
2023/09/19 04:16:32;;;;;;;1.90;1.10;;;;;;;;;;10525848;28;20455;-77
2023/09/19 04:21:36;;;;;;;2.35;1.05;;;;;;;;;;10524518;28;20432;-77
2023/09/19 04:26:39;;;;;;;3.60;1.30;;;;;;;;;;10535804;28;20496;-78
2023/09/19 04:31:43;;;;;;;4.40;1.37;;;;;;;;;;10533635;28;20449;-77
2023/09/19 04:36:47;;;;;;;3.55;1.38;;;;;;;;;;10520749;28;21005;-77
2023/09/19 04:41:50;;;;;;;3.10;1.10;;;;;;;;;;10519170;28;20902;-77
2023/09/19 04:46:52;;;;;;;1.48;1.00;;;;;;;;;;10521107;28;20495;-78
2023/09/19 04:51:57;;;;;;;2.55;1.00;;;;;;;;;;10528487;28;20433;-78
2023/09/19 04:56:59;;;;;;;2.07;1.20;;;;;;;;;;10535465;28;20514;-78
2023/09/19 05:02:02;;;;;;;3.75;1.42;;;;;;;;;;10534731;28;20435;-78
2023/09/19 05:07:06;;;;;;;2.85;1.00;;;;;;;;;;10529107;28;20517;-79
2023/09/19 05:12:10;;;;;;;2.08;0.80;;;;;;;;;;10516212;28;20436;-78
2023/09/19 05:17:16;;;;;;;3.00;1.40;;;;;;;;;;10513802;28;20771;-78
2023/09/19 05:22:21;;;;;;;3.30;1.20;;;;;;;;;;10521363;28;20961;-78
2023/09/19 05:27:23;;;;;;;3.13;1.30;;;;;;;;;;10521215;28;20437;-78
2023/09/19 05:32:26;;;;;;;1.23;0.90;;;;;;;;;;10525141;28;20416;-78
2023/09/19 05:37:30;;;;;;;2.07;1.07;;;;;;;;;;10528767;28;20890;-78
2023/09/19 05:42:33;;;;;;;2.30;1.20;;;;;;;;;;10530556;28;20441;-78
2023/09/19 05:47:36;;;;;;;2.65;1.13;;;;;;;;;;10533038;28;20808;-81
2023/09/19 05:52:40;;;;;;;2.40;1.20;;;;;;;;;;10531715;28;20444;-79
2023/09/19 05:57:43;;;;;;;3.30;1.20;;;;;;;;;;10527866;28;20768;-78
2023/09/19 06:02:46;;;;;;;1.90;0.90;;;;;;;;;;10529865;28;20490;-78
2023/09/19 06:07:50;;;;;;;2.63;0.98;;;;;;;;;;10525812;28;20431;-78
2023/09/19 06:12:53;;;;;;;4.80;1.10;;;;;;;;;;10521401;28;20448;-79
2023/09/19 06:17:56;;;;;;;2.97;1.30;;;;;;;;;;10530291;28;20511;-79
2023/09/19 06:23:02;;;;;;;2.57;1.10;;;;;;;;;;10525606;28;20424;-79
2023/09/19 06:28:05;;;;;;;4.50;1.10;;;;;;;;;;10521470;28;20803;-81
2023/09/19 06:33:07;;;;;;;2.90;1.07;;;;;;;;;;10525127;28;20473;-81
2023/09/19 06:38:12;;;;;;;2.72;1.13;;;;;;;;;;10519838;28;21796;-80
2023/09/19 06:43:15;;;;;;;2.33;1.10;;;;;;;;;;10517336;28;20438;-80
2023/09/19 06:48:19;;;;;;;2.95;1.00;;;;;;;;;;10516285;28;20441;-80
2023/09/19 06:53:23;;;;;;;1.70;1.30;;;;;;;;;;10520327;28;20453;-80
2023/09/19 06:58:26;;;;;;;3.08;1.10;;;;;;;;;;10512355;28;20471;-82
2023/09/19 07:03:29;;;;;;;3.22;1.45;;;;;;;;;;10515589;28;20518;-80
2023/09/19 07:08:33;;;;;;;3.65;1.40;;;;;;;;;;10522920;28;20483;-82
2023/09/19 07:13:36;;;;;;;1.10;1.00;;;;;;;;;;10521858;28;20548;-81
2023/09/19 07:18:39;;;;;;;2.10;0.98;;;;;;;;;;10522189;28;20434;-80
2023/09/19 07:23:43;;;;;;;2.90;1.20;;;;;;;;;;10516126;28;20489;-79
2023/09/19 07:28:46;;;;;;;3.28;1.33;;;;;;;;;;10514980;28;20473;-80
2023/09/19 07:33:48;;;;;;;2.37;0.93;;;;;;;;;;10517120;28;20886;-80
2023/09/19 07:38:54;;;;;;;1.83;0.93;;;;;;;;;;10520065;28;20438;-80
2023/09/19 07:44:05;;;;;;;1.85;1.02;;;;;;;;;;10521888;28;20867;-81
2023/09/19 07:49:10;;;;;;;2.43;1.20;;;;;;;;;;10524270;28;20487;-80
2023/09/19 07:54:16;;;;;;;3.45;1.17;;;;;;;;;;10526060;28;20419;-80
2023/09/19 07:59:19;;;;;;;4.00;1.40;;;;;;;;;;10523353;28;20416;-80
2023/09/19 08:04:22;;;;;;;2.03;1.00;;;;;;;;;;10528132;28;20425;-80
2023/09/19 08:09:27;;;;;;;1.23;0.80;;;;;;;;;;10516439;28;20755;-81
2023/09/19 08:14:30;;;;;;;1.70;0.90;;;;;;;;;;10524704;28;20920;-81
2023/09/19 08:19:32;;;;;;;3.22;0.90;;;;;;;;;;10519876;28;20424;-82
2023/09/19 08:24:37;;;;;;;1.80;0.80;;;;;;;;;;10515850;28;20971;-82
2023/09/19 08:29:39;;;;;;;2.13;1.00;;;;;;;;;;10515445;28;20538;-80
2023/09/19 08:34:42;;;;;;;2.33;1.60;;;;;;;;;;10529241;28;20937;-80
2023/09/19 08:39:46;;;;;;;1.90;1.30;;;;;;;;;;10524489;28;20472;-82
2023/09/19 08:44:50;;;;;;;1.85;1.38;;;;;;;;;;10522030;28;20442;-82
2023/09/19 08:50:00;;;;;;;2.00;1.40;;;;;;;;;;10523794;28;20513;-82
2023/09/19 08:55:09;;;;;;;2.03;1.27;;;;;;;;;;10515639;28;20422;-82
2023/09/19 09:00:17;;;;;;;3.53;1.67;;;;;;;;;;10527367;28;20512;-82
2023/09/19 09:05:22;;;;;;;2.17;1.40;;;;;;;;;;10529940;28;20504;-79
2023/09/19 09:10:27;;;;;;;1.90;0.80;;;;;;;;;;10529606;28;20916;-80
2023/09/19 09:15:32;;;;;;;1.60;1.00;;;;;;;;;;10528294;28;20575;-80
2023/09/19 09:20:37;;;;;;;2.28;1.30;;;;;;;;;;10534606;28;20637;-79
2023/09/19 09:25:56;;;;;;;1.80;1.07;;;;;;;;;;10525618;28;21234;-81
2023/09/19 09:30:59;;;;;;;2.53;1.35;;;;;;;;;;10522289;28;20422;-80
2023/09/19 09:36:03;;;;;;;1.70;1.40;;;;;;;;;;10520646;28;20427;-81
2023/09/19 09:41:07;;;;;;;2.97;1.33;;;;;;;;;;10528646;28;20805;-80
2023/09/19 09:46:54;;;;;;;1.53;1.40;;;;;;;;;;10529985;28;20512;-80
2023/09/19 09:51:38;;;;;;;2.07;1.40;;;;;;;;;;10518154;28;20942;-80
2023/09/19 09:57:00;;;;;;;2.15;1.10;;;;;;;;;;10524492;28;20537;-80
2023/09/19 10:02:03;;;;;;;3.45;1.33;;;;;;;;;;10523204;28;20436;-81
2023/09/19 10:07:11;;;;;;;2.50;1.23;;;;;;;;;;10524759;28;20439;-81
2023/09/19 10:12:20;;;;;;;5.90;1.83;;;;;;;;;;10521063;28;20445;-79
2023/09/19 10:17:24;;;;;;;2.55;1.50;;;;;;;;;;10525538;28;20422;-80
2023/09/19 10:22:30;;;;;;;2.00;1.40;;;;;;;;;;10527084;28;20432;-81
2023/09/19 10:27:37;;;;;;;1.80;1.27;;;;;;;;;;10523349;28;20414;-81
2023/09/19 10:32:41;;;;;;;1.73;1.00;;;;;;;;;;10520587;28;20416;-81
2023/09/19 10:37:45;;;;;;;1.67;1.33;;;;;;;;;;10520909;28;20945;-81
2023/09/19 10:42:50;;;;;;;2.55;1.20;;;;;;;;;;10516642;28;20433;-81
2023/09/19 10:47:56;;;;;;;2.13;1.10;;;;;;;;;;10517515;28;20504;-80
2023/09/19 10:53:04;;;;;;;2.08;1.55;;;;;;;;;;10524367;28;20462;-80
2023/09/19 10:58:15;;;;;;;1.73;1.50;;;;;;;;;;10523278;28;20472;-80
2023/09/19 11:03:20;;;;;;;2.35;1.50;;;;;;;;;;10532731;28;20932;-80
2023/09/19 11:08:26;;;;;;;3.38;1.85;;;;;;;;;;10538911;27;20414;-82
2023/09/19 11:13:34;;;;;;;3.15;1.60;;;;;;;;;;10516613;28;20520;-81
2023/09/19 11:18:53;;;;;;;1.60;1.50;;;;;;;;;;10522692;28;20515;-83
2023/09/19 11:24:11;;;;;;;2.40;1.90;;;;;;;;;;10532433;28;20439;-81
2023/09/19 11:29:26;;;;;;;3.67;1.77;;;;;;;;;;10513531;28;20510;-82
2023/09/19 11:34:38;;;;;;;2.65;1.50;;;;;;;;;;10517652;28;20543;-81
2023/09/19 11:39:41;;;;;;;1.60;0.95;;;;;;;;;;10517458;28;20421;-82
2023/09/19 11:44:45;;;;;;;2.87;1.20;;;;;;;;;;10518517;28;20980;-81
2023/09/19 11:49:50;;;;;;;1.17;0.80;;;;;;;;;;10521954;28;20427;-82
2023/09/19 11:54:56;;;;;;;1.73;0.95;;;;;;;;;;10518755;28;20422;-81
2023/09/19 12:00:04;;;;;;;2.70;1.00;;;;;;;;;;10518467;28;20414;-81
2023/09/19 12:05:09;;;;;;;2.40;0.97;;;;;;;;;;10519415;28;20421;-80
2023/09/19 12:10:16;;;;;;;1.92;1.40;;;;;;;;;;10519510;28;20439;-81
2023/09/19 12:15:28;;;;;;;2.33;1.30;;;;;;;;;;10520595;28;20426;-81
2023/09/19 12:20:44;;;;;;;2.25;1.17;;;;;;;;;;10510268;28;20439;-81
2023/09/19 12:25:52;;;;;;;4.38;1.30;;;;;;;;;;10525045;28;20524;-95
2023/09/19 12:30:58;;;;;;;3.92;1.40;;;;;;;;;;10591179;22;20433;-94
2023/09/19 12:36:23;;;;;;;2.72;1.35;;;;;;;;;;10592108;22;20429;-96
2023/09/19 12:41:25;;;;;;;1.52;1.00;;;;;;;;;;10497003;28;20419;-94
2023/09/19 12:46:32;;;;;;;2.20;1.00;;;;;;;;;;10486151;28;20944;-94
2023/09/19 13:09:21;;;;;;;2.95;1.40;;;;;;;;;;10477083;28;20405;-95
2023/09/19 13:15:15;;;;;;;2.85;1.40;;;;;;;;;;10486359;28;20488;-93
2023/09/19 13:26:24;;;;;;;1.98;1.40;;;;;;;;;;10600272;27;20435;-94
2023/09/19 13:42:15;;;;;;;3.40;1.25;;;;;;;;;;10615308;27;20433;-95
2023/09/19 13:47:24;;;;;;;2.72;1.30;;;;;;;;;;10626964;22;20410;-94
2023/09/19 13:52:30;;;;;;;4.70;1.70;;;;;;;;;;10540440;28;20562;-93
2023/09/19 14:09:28;;;;;;;1.60;1.00;;;;;;;;;;10573487;28;20430;-95
2023/09/19 14:44:51;;;;;;;1.70;0.90;;;;;;;;;;10559597;28;20434;-93
2023/09/19 14:57:03;;;;;;;1.88;0.82;;;;;;;;;;10834938;22;20435;-96
2023/09/19 15:20:44;;;;;;;1.98;1.10;;;;;;;;;;10386916;23;20521;-94
2023/09/19 15:26:06;;;;;;;1.63;1.10;;;;;;;;;;10566927;23;20421;-94
2023/09/19 15:31:15;;;;;;;4.40;1.37;;;;;;;;;;11375284;23;20405;-95
2023/09/19 15:36:35;;;;;;;1.80;0.82;;;;;;;;;;10414638;23;20520;-93
2023/09/19 15:41:41;;;;;;;2.43;1.03;;;;;;;;;;10357904;23;20482;-92
2023/09/19 15:46:45;;;;;;;0.83;0.60;;;;;;;;;;10292958;28;20496;-93
2023/09/19 15:51:49;;;;;;;2.60;1.10;;;;;;;;;;10313647;28;20436;-92
2023/09/19 15:56:56;;;;;;;2.63;1.10;;;;;;;;;;10272245;28;20506;-81
2023/09/19 16:01:59;;;;;;;1.38;0.80;;;;;;;;;;10265183;28;20443;-78
2023/09/19 16:07:02;;;;;;;2.95;1.13;;;;;;;;;;10272470;28;20530;-79
2023/09/19 16:12:08;;;;;;;2.55;0.98;;;;;;;;;;10271542;28;20467;-79
2023/09/19 16:17:11;;;;;;;4.17;1.20;;;;;;;;;;10267216;28;20702;-79
2023/09/19 16:22:14;;;;;;;1.10;1.00;;;;;;;;;;10256570;28;20436;-79
2023/09/19 16:27:21;;;;;;;3.22;1.20;;;;;;;;;;10269016;28;20434;-78
2023/09/19 16:32:23;;;;;;;2.78;1.23;;;;;;;;;;10265648;28;20790;-79
2023/09/19 16:37:26;;;;;;;4.47;1.15;;;;;;;;;;10269607;28;20471;-79
2023/09/19 16:42:31;;;;;;;1.67;0.90;;;;;;;;;;10266148;28;20439;-79
2023/09/19 16:47:40;;;;;;;2.35;1.08;;;;;;;;;;10270525;28;20433;-80
2023/09/19 16:52:43;;;;;;;1.65;1.02;;;;;;;;;;10272027;28;20478;-80
2023/09/19 16:57:47;;;;;;;2.28;1.00;;;;;;;;;;10270269;28;20427;-79
2023/09/19 17:02:51;;;;;;;3.33;1.20;;;;;;;;;;10265189;28;20441;-79
2023/09/19 17:07:56;;;;;;;2.40;1.30;;;;;;;;;;10272329;28;20452;-79
2023/09/19 17:13:00;;;;;;;2.20;1.08;;;;;;;;;;10267722;28;20440;-79
2023/09/19 17:18:03;;;;;;;1.40;1.00;;;;;;;;;;10274095;28;20442;-79
2023/09/19 17:23:06;;;;;;;5.10;2.40;;;;;;;;;;10263512;28;20477;-79
2023/09/19 17:28:10;;;;;;;4.82;1.75;;;;;;;;;;10266994;28;20440;-80
2023/09/19 17:33:12;;;;;;;3.80;1.70;;;;;;;;;;10253669;28;20998;-79
2023/09/19 17:38:15;;;;;;;2.50;1.20;;;;;;;;;;10270867;28;20529;-80
2023/09/19 17:43:19;;;;;;;3.53;1.47;;;;;;;;;;10264106;28;20471;-80
2023/09/19 17:48:22;;;;;;;2.22;1.45;;;;;;;;;;10271630;28;20936;-77
2023/09/19 17:53:25;;;;;;;5.23;2.10;;;;;;;;;;10266820;28;20446;-78
2023/09/19 17:58:29;;;;;;;5.40;1.92;;;;;;;;;;10263574;28;20463;-78
2023/09/19 18:03:31;;;;;;;5.13;2.03;;;;;;;;;;10265796;28;20463;-78
2023/09/19 18:08:34;;;;;;;4.25;1.60;;;;;;;;;;10263650;28;20444;-78
2023/09/19 18:13:38;;;;;;;3.42;1.60;;;;;;;;;;10276611;28;20452;-79
2023/09/19 18:18:42;;;;;;;7.13;2.97;;;;;;;;;;10275792;28;20443;-78
2023/09/19 18:23:46;;;;;;;3.95;1.52;;;;;;;;;;10278376;28;20925;-78
2023/09/19 18:28:50;;;;;;;3.30;1.60;;;;;;;;;;10278988;28;20436;-78
2023/09/19 18:33:53;;;;;;;5.13;1.90;;;;;;;;;;10281925;28;20454;-77
2023/09/19 18:38:57;;;;;;;4.30;2.00;;;;;;;;;;10258805;28;20487;-78
2023/09/19 18:44:01;;;;;;;11.85;5.20;;;;;;;;;;10275033;28;20631;-78
2023/09/19 18:49:04;;;;;;;4.60;1.70;;;;;;;;;;10279125;28;20991;-79
2023/09/19 18:54:07;;;;;;;4.77;2.37;;;;;;;;;;10277000;28;20966;-78
2023/09/19 18:59:20;;;;;;;4.15;1.95;;;;;;;;;;10258973;28;20424;-77
2023/09/19 19:04:24;;;;;;;2.92;1.80;;;;;;;;;;10278420;28;20901;-78
2023/09/19 19:09:28;;;;;;;4.10;2.50;;;;;;;;;;10274292;28;20536;-78
2023/09/19 19:14:32;;;;;;;4.03;2.30;;;;;;;;;;10271371;28;20432;-77
2023/09/19 19:19:35;;;;;;;4.30;2.40;;;;;;;;;;10275712;28;21019;-78
2023/09/19 19:24:37;;;;;;;11.73;6.10;;;;;;;;;;10272472;28;20799;-79
2023/09/19 19:29:42;;;;;;;6.57;2.40;;;;;;;;;;10275839;28;20446;-78
2023/09/19 19:34:45;;;;;;;3.80;1.50;;;;;;;;;;10273826;28;20762;-80
2023/09/19 19:39:48;;;;;;;3.90;1.80;;;;;;;;;;10271645;28;20841;-79
2023/09/19 19:44:54;;;;;;;6.00;2.80;;;;;;;;;;10276833;28;20458;-79
2023/09/19 19:49:58;;;;;;;3.78;1.60;;;;;;;;;;10273127;28;20530;-77
2023/09/19 19:55:01;;;;;;;5.60;3.00;;;;;;;;;;10259192;28;20518;-78
2023/09/19 20:00:06;;;;;;;9.48;4.53;;;;;;;;;;10254137;28;20432;-80
2023/09/19 20:05:11;;;;;;;4.15;2.17;;;;;;;;;;10274660;28;20432;-78
2023/09/19 20:10:15;;;;;;;5.10;2.10;;;;;;;;;;10268827;28;20441;-79
2023/09/19 20:15:20;;;;;;;5.47;2.03;;;;;;;;;;10255400;28;20920;-78
2023/09/19 20:20:22;;;;;;;5.00;2.17;;;;;;;;;;10272858;28;21093;-79
2023/09/19 20:25:27;;;;;;;4.03;2.05;;;;;;;;;;10269345;28;20435;-79
2023/09/19 20:30:32;;;;;;;4.50;2.00;;;;;;;;;;10273758;28;20527;-79
2023/09/19 20:35:36;;;;;;;4.50;2.08;;;;;;;;;;10272171;28;21154;-77
2023/09/19 20:40:40;;;;;;;3.75;2.00;;;;;;;;;;10266880;28;20455;-79
2023/09/19 20:45:45;;;;;;;4.28;2.08;;;;;;;;;;10265555;28;20424;-79
2023/09/19 20:50:47;;;;;;;4.88;2.10;;;;;;;;;;10251758;28;21078;-77
2023/09/19 20:55:50;;;;;;;6.32;1.98;;;;;;;;;;10268548;28;20423;-77
2023/09/19 21:00:54;;;;;;;5.38;2.20;;;;;;;;;;10265797;28;20503;-77
2023/09/19 21:06:00;;;;;;;4.03;1.80;;;;;;;;;;10270798;28;20932;-77
2023/09/19 21:11:11;;;;;;;4.20;2.00;;;;;;;;;;10268315;28;20434;-78
2023/09/19 21:16:15;;;;;;;4.72;2.00;;;;;;;;;;10267228;28;20432;-79
2023/09/19 21:21:20;;;;;;;3.00;1.83;;;;;;;;;;10269920;28;20437;-76
2023/09/19 21:26:23;;;;;;;5.77;2.17;;;;;;;;;;10269732;28;20781;-77
2023/09/19 21:31:27;;;;;;;5.40;2.50;;;;;;;;;;10267978;28;21004;-76
2023/09/19 21:36:32;;;;;;;5.13;2.20;;;;;;;;;;10265972;28;20454;-75
2023/09/19 21:41:36;;;;;;;4.60;2.33;;;;;;;;;;10264595;28;20533;-75
2023/09/19 21:46:40;;;;;;;4.00;2.10;;;;;;;;;;10270873;28;20442;-73
2023/09/19 21:51:43;;;;;;;3.43;2.00;;;;;;;;;;10268959;28;20527;-74
2023/09/19 21:56:48;;;;;;;4.43;2.00;;;;;;;;;;10275557;28;20943;-75
2023/09/19 22:01:52;;;;;;;4.30;2.50;;;;;;;;;;10275523;28;20476;-75
2023/09/19 22:06:54;;;;;;;4.75;2.10;;;;;;;;;;10275189;28;20518;-75
2023/09/19 22:11:58;;;;;;;4.00;2.35;;;;;;;;;;10258649;28;20522;-75
2023/09/19 22:17:03;;;;;;;4.70;2.23;;;;;;;;;;10274212;28;20471;-75
2023/09/19 22:22:11;;;;;;;4.22;2.20;;;;;;;;;;10277231;28;20431;-75
2023/09/19 22:27:15;;;;;;;5.07;2.40;;;;;;;;;;10273781;28;20527;-77
2023/09/19 22:32:19;;;;;;;5.43;2.10;;;;;;;;;;10273292;28;20478;-75
2023/09/19 22:37:24;;;;;;;4.15;2.08;;;;;;;;;;10272417;28;20483;-75
2023/09/19 22:42:30;;;;;;;3.70;2.10;;;;;;;;;;10277064;28;20467;-76
2023/09/19 22:47:34;;;;;;;5.47;2.30;;;;;;;;;;10272754;28;20854;-75
2023/09/19 22:52:37;;;;;;;4.90;2.20;;;;;;;;;;10274317;28;20494;-74
2023/09/19 22:57:39;;;;;;;3.80;1.70;;;;;;;;;;10270782;28;20471;-74
2023/09/19 23:02:43;;;;;;;2.63;1.70;;;;;;;;;;10275285;28;20498;-74
2023/09/19 23:07:53;;;;;;;3.27;1.80;;;;;;;;;;10275221;28;20456;-74
2023/09/19 23:12:57;;;;;;;3.25;1.77;;;;;;;;;;10268513;28;20987;-73
2023/09/19 23:18:01;;;;;;;3.40;1.60;;;;;;;;;;10275428;28;20501;-73
2023/09/19 23:23:04;;;;;;;2.97;1.73;;;;;;;;;;10274302;28;20568;-74
2023/09/19 23:28:07;;;;;;;3.80;1.57;;;;;;;;;;10272517;28;20464;-74
2023/09/19 23:33:12;;;;;;;2.67;1.63;;;;;;;;;;10273659;28;20431;-74
2023/09/19 23:38:16;;;;;;;2.97;1.70;;;;;;;;;;10273176;28;20496;-74
2023/09/19 23:43:19;;;;;;;2.63;1.70;;;;;;;;;;10270256;28;20431;-76
2023/09/19 23:48:24;;;;;;;3.40;1.55;;;;;;;;;;10275388;28;20436;-75
2023/09/19 23:53:28;;;;;;;2.88;1.60;;;;;;;;;;10273264;28;20471;-76
2023/09/19 23:58:32;;;;;;;3.72;1.60;;;;;;;;;;10272317;28;20537;-75
